sensor_id;sensor_type;location;lat;lon;timestamp;P1;durP1;ratioP1;P2;durP2;ratioP2
50773;SDS011;36745;48.544;8.918;2023-05-14T00:02:53;17.33;;;13.73;;
50773;SDS011;36745;48.544;8.918;2023-05-14T00:06:13;16.08;;;13.77;;
50773;SDS011;36745;48.544;8.918;2023-05-14T00:09:33;14.57;;;13.07;;
50773;SDS011;36745;48.544;8.918;2023-05-14T00:12:53;16.67;;;14.85;;
50773;SDS011;36745;48.544;8.918;2023-05-14T00:16:13;17.30;;;13.60;;
50773;SDS011;36745;48.544;8.918;2023-05-14T00:19:33;18.13;;;14.00;;
50773;SDS011;36745;48.544;8.918;2023-05-14T00:22:53;15.57;;;13.52;;
50773;SDS011;36745;48.544;8.918;2023-05-14T00:26:12;15.00;;;13.18;;
50773;SDS011;36745;48.544;8.918;2023-05-14T00:29:32;14.25;;;12.75;;
50773;SDS011;36745;48.544;8.918;2023-05-14T00:32:52;14.15;;;12.65;;
50773;SDS011;36745;48.544;8.918;2023-05-14T00:36:12;15.20;;;13.70;;
50773;SDS011;36745;48.544;8.918;2023-05-14T00:39:32;78.75;;;50.30;;
50773;SDS011;36745;48.544;8.918;2023-05-14T00:42:53;30.83;;;25.25;;
50773;SDS011;36745;48.544;8.918;2023-05-14T00:46:14;33.58;;;23.23;;
50773;SDS011;36745;48.544;8.918;2023-05-14T00:49:34;27.90;;;21.60;;
50773;SDS011;36745;48.544;8.918;2023-05-14T00:52:54;33.63;;;21.30;;
50773;SDS011;36745;48.544;8.918;2023-05-14T00:56:14;27.60;;;22.15;;
50773;SDS011;36745;48.544;8.918;2023-05-14T00:59:34;35.30;;;29.95;;
50773;SDS011;36745;48.544;8.918;2023-05-14T01:02:54;21.17;;;17.35;;
50773;SDS011;36745;48.544;8.918;2023-05-14T01:06:16;20.08;;;16.67;;
50773;SDS011;36745;48.544;8.918;2023-05-14T01:09:43;21.05;;;17.60;;
50773;SDS011;36745;48.544;8.918;2023-05-14T01:16:42;28.52;;;23.73;;
50773;SDS011;36745;48.544;8.918;2023-05-14T01:20:04;17.95;;;16.15;;
50773;SDS011;36745;48.544;8.918;2023-05-14T01:23:25;28.50;;;23.25;;
50773;SDS011;36745;48.544;8.918;2023-05-14T01:26:45;20.27;;;16.85;;
50773;SDS011;36745;48.544;8.918;2023-05-14T01:30:12;18.45;;;16.52;;
50773;SDS011;36745;48.544;8.918;2023-05-14T01:33:37;22.60;;;19.90;;
50773;SDS011;36745;48.544;8.918;2023-05-14T01:37:01;25.38;;;19.27;;
50773;SDS011;36745;48.544;8.918;2023-05-14T01:40:23;26.13;;;20.48;;
50773;SDS011;36745;48.544;8.918;2023-05-14T01:43:44;16.73;;;14.90;;
50773;SDS011;36745;48.544;8.918;2023-05-14T01:47:04;18.98;;;15.20;;
50773;SDS011;36745;48.544;8.918;2023-05-14T01:50:24;19.08;;;14.93;;
50773;SDS011;36745;48.544;8.918;2023-05-14T01:53:44;22.60;;;15.23;;
50773;SDS011;36745;48.544;8.918;2023-05-14T01:57:04;18.70;;;15.73;;
50773;SDS011;36745;48.544;8.918;2023-05-14T02:00:24;16.38;;;14.68;;
50773;SDS011;36745;48.544;8.918;2023-05-14T02:03:46;16.92;;;14.48;;
50773;SDS011;36745;48.544;8.918;2023-05-14T02:07:06;19.95;;;15.60;;
50773;SDS011;36745;48.544;8.918;2023-05-14T02:10:26;21.38;;;16.05;;
50773;SDS011;36745;48.544;8.918;2023-05-14T02:13:46;21.95;;;16.45;;
50773;SDS011;36745;48.544;8.918;2023-05-14T02:17:05;22.35;;;16.30;;
50773;SDS011;36745;48.544;8.918;2023-05-14T02:20:25;18.70;;;16.40;;
50773;SDS011;36745;48.544;8.918;2023-05-14T02:23:45;20.05;;;16.70;;
50773;SDS011;36745;48.544;8.918;2023-05-14T02:27:06;20.42;;;16.17;;
50773;SDS011;36745;48.544;8.918;2023-05-14T02:30:26;16.98;;;15.10;;
50773;SDS011;36745;48.544;8.918;2023-05-14T02:33:46;18.15;;;16.25;;
50773;SDS011;36745;48.544;8.918;2023-05-14T02:37:05;20.48;;;14.70;;
50773;SDS011;36745;48.544;8.918;2023-05-14T02:40:25;16.55;;;14.85;;
50773;SDS011;36745;48.544;8.918;2023-05-14T02:43:45;20.65;;;16.25;;
50773;SDS011;36745;48.544;8.918;2023-05-14T02:47:05;18.30;;;16.02;;
50773;SDS011;36745;48.544;8.918;2023-05-14T02:50:25;17.70;;;15.10;;
50773;SDS011;36745;48.544;8.918;2023-05-14T02:53:45;17.95;;;15.95;;
50773;SDS011;36745;48.544;8.918;2023-05-14T02:57:05;18.98;;;15.63;;
50773;SDS011;36745;48.544;8.918;2023-05-14T03:00:24;17.77;;;15.90;;
50773;SDS011;36745;48.544;8.918;2023-05-14T03:03:44;21.13;;;16.45;;
50773;SDS011;36745;48.544;8.918;2023-05-14T03:07:04;19.83;;;15.90;;
50773;SDS011;36745;48.544;8.918;2023-05-14T03:10:24;19.63;;;15.60;;
50773;SDS011;36745;48.544;8.918;2023-05-14T03:13:44;18.60;;;15.65;;
50773;SDS011;36745;48.544;8.918;2023-05-14T03:17:04;17.60;;;14.55;;
50773;SDS011;36745;48.544;8.918;2023-05-14T03:20:23;18.35;;;15.40;;
50773;SDS011;36745;48.544;8.918;2023-05-14T03:23:45;15.88;;;14.15;;
50773;SDS011;36745;48.544;8.918;2023-05-14T03:27:04;19.00;;;15.02;;
50773;SDS011;36745;48.544;8.918;2023-05-14T03:30:24;16.67;;;14.20;;
50773;SDS011;36745;48.544;8.918;2023-05-14T03:33:44;16.33;;;14.57;;
50773;SDS011;36745;48.544;8.918;2023-05-14T03:37:04;19.35;;;15.80;;
50773;SDS011;36745;48.544;8.918;2023-05-14T03:40:24;20.20;;;14.85;;
50773;SDS011;36745;48.544;8.918;2023-05-14T03:43:44;19.88;;;15.80;;
50773;SDS011;36745;48.544;8.918;2023-05-14T03:47:04;22.20;;;15.88;;
50773;SDS011;36745;48.544;8.918;2023-05-14T03:50:24;18.02;;;14.75;;
50773;SDS011;36745;48.544;8.918;2023-05-14T03:53:44;15.60;;;14.02;;
50773;SDS011;36745;48.544;8.918;2023-05-14T03:57:03;17.10;;;15.10;;
50773;SDS011;36745;48.544;8.918;2023-05-14T04:00:23;19.10;;;16.17;;
50773;SDS011;36745;48.544;8.918;2023-05-14T04:03:43;18.98;;;15.30;;
50773;SDS011;36745;48.544;8.918;2023-05-14T04:07:03;18.48;;;16.05;;
50773;SDS011;36745;48.544;8.918;2023-05-14T04:10:22;20.15;;;16.08;;
50773;SDS011;36745;48.544;8.918;2023-05-14T04:13:42;18.35;;;16.08;;
50773;SDS011;36745;48.544;8.918;2023-05-14T04:17:02;18.65;;;15.45;;
50773;SDS011;36745;48.544;8.918;2023-05-14T04:20:22;19.17;;;16.95;;
50773;SDS011;36745;48.544;8.918;2023-05-14T04:23:41;19.60;;;16.50;;
50773;SDS011;36745;48.544;8.918;2023-05-14T04:27:02;20.33;;;15.65;;
50773;SDS011;36745;48.544;8.918;2023-05-14T04:30:22;19.58;;;15.38;;
50773;SDS011;36745;48.544;8.918;2023-05-14T04:33:42;19.95;;;14.95;;
50773;SDS011;36745;48.544;8.918;2023-05-14T04:37:02;20.50;;;16.60;;
50773;SDS011;36745;48.544;8.918;2023-05-14T04:40:22;20.05;;;16.42;;
50773;SDS011;36745;48.544;8.918;2023-05-14T04:43:42;26.20;;;17.02;;
50773;SDS011;36745;48.544;8.918;2023-05-14T04:47:02;18.05;;;15.60;;
50773;SDS011;36745;48.544;8.918;2023-05-14T04:50:22;17.77;;;15.90;;
50773;SDS011;36745;48.544;8.918;2023-05-14T04:53:42;19.42;;;16.33;;
50773;SDS011;36745;48.544;8.918;2023-05-14T04:57:02;21.65;;;17.15;;
50773;SDS011;36745;48.544;8.918;2023-05-14T05:00:21;19.38;;;15.77;;
50773;SDS011;36745;48.544;8.918;2023-05-14T05:03:42;19.55;;;17.27;;
50773;SDS011;36745;48.544;8.918;2023-05-14T05:07:02;20.38;;;18.17;;
50773;SDS011;36745;48.544;8.918;2023-05-14T05:10:21;20.35;;;17.92;;
50773;SDS011;36745;48.544;8.918;2023-05-14T05:13:41;19.88;;;17.80;;
50773;SDS011;36745;48.544;8.918;2023-05-14T05:17:01;20.85;;;17.63;;
50773;SDS011;36745;48.544;8.918;2023-05-14T05:20:21;19.75;;;16.83;;
50773;SDS011;36745;48.544;8.918;2023-05-14T05:23:41;19.80;;;16.50;;
50773;SDS011;36745;48.544;8.918;2023-05-14T05:27:01;21.95;;;16.77;;
50773;SDS011;36745;48.544;8.918;2023-05-14T05:30:21;19.48;;;16.98;;
50773;SDS011;36745;48.544;8.918;2023-05-14T05:33:41;20.35;;;16.42;;
50773;SDS011;36745;48.544;8.918;2023-05-14T05:37:00;19.60;;;16.52;;
50773;SDS011;36745;48.544;8.918;2023-05-14T05:40:20;18.80;;;16.00;;
50773;SDS011;36745;48.544;8.918;2023-05-14T05:43:40;17.77;;;15.90;;
50773;SDS011;36745;48.544;8.918;2023-05-14T05:47:00;19.52;;;15.75;;
50773;SDS011;36745;48.544;8.918;2023-05-14T05:50:19;18.38;;;16.27;;
50773;SDS011;36745;48.544;8.918;2023-05-14T05:53:39;17.77;;;15.88;;
50773;SDS011;36745;48.544;8.918;2023-05-14T05:56:59;20.05;;;16.30;;
50773;SDS011;36745;48.544;8.918;2023-05-14T06:00:19;18.08;;;16.08;;
50773;SDS011;36745;48.544;8.918;2023-05-14T06:03:39;17.85;;;15.45;;
50773;SDS011;36745;48.544;8.918;2023-05-14T06:06:58;17.23;;;15.40;;
50773;SDS011;36745;48.544;8.918;2023-05-14T06:10:18;20.40;;;15.35;;
50773;SDS011;36745;48.544;8.918;2023-05-14T06:13:38;16.95;;;15.15;;
50773;SDS011;36745;48.544;8.918;2023-05-14T06:16:58;18.70;;;15.57;;
50773;SDS011;36745;48.544;8.918;2023-05-14T06:20:21;17.92;;;15.55;;
50773;SDS011;36745;48.544;8.918;2023-05-14T06:23:41;19.60;;;15.73;;
50773;SDS011;36745;48.544;8.918;2023-05-14T06:27:04;21.08;;;16.50;;
50773;SDS011;36745;48.544;8.918;2023-05-14T06:30:27;18.53;;;16.37;;
50773;SDS011;36745;48.544;8.918;2023-05-14T06:33:50;19.73;;;16.88;;
50773;SDS011;36745;48.544;8.918;2023-05-14T06:37:10;16.88;;;14.85;;
50773;SDS011;36745;48.544;8.918;2023-05-14T06:40:33;19.10;;;15.15;;
50773;SDS011;36745;48.544;8.918;2023-05-14T06:44:02;16.77;;;15.00;;
50773;SDS011;36745;48.544;8.918;2023-05-14T06:47:23;17.27;;;15.18;;
50773;SDS011;36745;48.544;8.918;2023-05-14T06:50:46;16.65;;;14.63;;
50773;SDS011;36745;48.544;8.918;2023-05-14T06:54:07;16.95;;;15.18;;
50773;SDS011;36745;48.544;8.918;2023-05-14T06:57:27;19.85;;;15.40;;
50773;SDS011;36745;48.544;8.918;2023-05-14T07:00:47;17.15;;;13.88;;
50773;SDS011;36745;48.544;8.918;2023-05-14T07:04:06;14.70;;;13.10;;
50773;SDS011;36745;48.544;8.918;2023-05-14T07:07:26;17.58;;;14.30;;
50773;SDS011;36745;48.544;8.918;2023-05-14T07:10:46;14.98;;;13.45;;
50773;SDS011;36745;48.544;8.918;2023-05-14T07:14:06;20.40;;;16.05;;
50773;SDS011;36745;48.544;8.918;2023-05-14T07:17:26;17.45;;;15.23;;
50773;SDS011;36745;48.544;8.918;2023-05-14T07:20:45;17.33;;;15.45;;
50773;SDS011;36745;48.544;8.918;2023-05-14T07:24:05;18.05;;;16.08;;
50773;SDS011;36745;48.544;8.918;2023-05-14T07:27:25;20.23;;;17.75;;
50773;SDS011;36745;48.544;8.918;2023-05-14T07:30:45;20.00;;;17.90;;
50773;SDS011;36745;48.544;8.918;2023-05-14T07:34:05;21.60;;;17.98;;
50773;SDS011;36745;48.544;8.918;2023-05-14T07:37:34;23.15;;;19.88;;
50773;SDS011;36745;48.544;8.918;2023-05-14T07:40:55;21.20;;;18.90;;
50773;SDS011;36745;48.544;8.918;2023-05-14T07:44:14;23.38;;;19.52;;
50773;SDS011;36745;48.544;8.918;2023-05-14T07:47:34;21.20;;;18.90;;
50773;SDS011;36745;48.544;8.918;2023-05-14T07:50:54;21.95;;;17.65;;
50773;SDS011;36745;48.544;8.918;2023-05-14T07:54:14;21.58;;;18.65;;
50773;SDS011;36745;48.544;8.918;2023-05-14T07:57:35;21.00;;;18.65;;
50773;SDS011;36745;48.544;8.918;2023-05-14T08:00:55;28.10;;;21.95;;
50773;SDS011;36745;48.544;8.918;2023-05-14T08:04:16;24.20;;;20.45;;
50773;SDS011;36745;48.544;8.918;2023-05-14T08:07:36;22.23;;;19.60;;
50773;SDS011;36745;48.544;8.918;2023-05-14T08:10:56;21.05;;;18.73;;
50773;SDS011;36745;48.544;8.918;2023-05-14T08:14:15;22.42;;;17.10;;
50773;SDS011;36745;48.544;8.918;2023-05-14T08:17:35;26.98;;;21.52;;
50773;SDS011;36745;48.544;8.918;2023-05-14T08:20:55;21.45;;;19.15;;
50773;SDS011;36745;48.544;8.918;2023-05-14T08:24:15;21.30;;;18.92;;
50773;SDS011;36745;48.544;8.918;2023-05-14T08:27:35;23.77;;;19.85;;
50773;SDS011;36745;48.544;8.918;2023-05-14T08:30:55;20.20;;;18.17;;
50773;SDS011;36745;48.544;8.918;2023-05-14T08:34:15;20.38;;;18.27;;
50773;SDS011;36745;48.544;8.918;2023-05-14T08:37:35;23.48;;;20.05;;
50773;SDS011;36745;48.544;8.918;2023-05-14T08:40:56;23.95;;;21.25;;
50773;SDS011;36745;48.544;8.918;2023-05-14T08:44:19;25.50;;;22.13;;
50773;SDS011;36745;48.544;8.918;2023-05-14T08:47:46;20.90;;;18.60;;
50773;SDS011;36745;48.544;8.918;2023-05-14T08:51:10;21.27;;;18.52;;
50773;SDS011;36745;48.544;8.918;2023-05-14T08:54:29;81.55;;;50.90;;
50773;SDS011;36745;48.544;8.918;2023-05-14T08:57:50;22.25;;;18.55;;
50773;SDS011;36745;48.544;8.918;2023-05-14T09:01:10;18.42;;;16.00;;
50773;SDS011;36745;48.544;8.918;2023-05-14T09:04:30;21.20;;;17.60;;
50773;SDS011;36745;48.544;8.918;2023-05-14T09:07:50;19.33;;;17.27;;
50773;SDS011;36745;48.544;8.918;2023-05-14T09:11:10;20.48;;;18.17;;
50773;SDS011;36745;48.544;8.918;2023-05-14T09:14:31;17.48;;;15.63;;
50773;SDS011;36745;48.544;8.918;2023-05-14T09:17:51;19.90;;;17.80;;
50773;SDS011;36745;48.544;8.918;2023-05-14T09:21:12;19.02;;;16.75;;
50773;SDS011;36745;48.544;8.918;2023-05-14T09:24:33;18.85;;;16.85;;
50773;SDS011;36745;48.544;8.918;2023-05-14T09:27:52;17.17;;;15.30;;
50773;SDS011;36745;48.544;8.918;2023-05-14T09:31:13;21.50;;;17.73;;
50773;SDS011;36745;48.544;8.918;2023-05-14T09:34:33;19.20;;;17.10;;
50773;SDS011;36745;48.544;8.918;2023-05-14T09:37:56;18.43;;;14.53;;
50773;SDS011;36745;48.544;8.918;2023-05-14T09:41:16;19.65;;;17.42;;
50773;SDS011;36745;48.544;8.918;2023-05-14T09:44:36;18.27;;;15.98;;
50773;SDS011;36745;48.544;8.918;2023-05-14T09:47:58;17.13;;;15.18;;
50773;SDS011;36745;48.544;8.918;2023-05-14T09:51:19;17.02;;;15.23;;
50773;SDS011;36745;48.544;8.918;2023-05-14T09:54:39;17.33;;;15.45;;
50773;SDS011;36745;48.544;8.918;2023-05-14T09:57:59;16.63;;;14.77;;
50773;SDS011;36745;48.544;8.918;2023-05-14T10:01:19;19.60;;;16.42;;
50773;SDS011;36745;48.544;8.918;2023-05-14T10:04:40;17.00;;;15.20;;
50773;SDS011;36745;48.544;8.918;2023-05-14T10:08:02;19.45;;;16.05;;
50773;SDS011;36745;48.544;8.918;2023-05-14T10:11:27;16.67;;;14.77;;
50773;SDS011;36745;48.544;8.918;2023-05-14T10:14:50;20.88;;;16.70;;
50773;SDS011;36745;48.544;8.918;2023-05-14T10:18:16;20.13;;;16.60;;
50773;SDS011;36745;48.544;8.918;2023-05-14T10:21:39;18.83;;;16.45;;
50773;SDS011;36745;48.544;8.918;2023-05-14T10:25:03;18.40;;;16.50;;
50773;SDS011;36745;48.544;8.918;2023-05-14T10:28:23;17.23;;;15.43;;
50773;SDS011;36745;48.544;8.918;2023-05-14T10:35:18;18.38;;;16.08;;
50773;SDS011;36745;48.544;8.918;2023-05-14T10:38:40;18.75;;;15.13;;
50773;SDS011;36745;48.544;8.918;2023-05-14T10:42:00;17.98;;;15.30;;
50773;SDS011;36745;48.544;8.918;2023-05-14T10:45:20;20.55;;;14.65;;
50773;SDS011;36745;48.544;8.918;2023-05-14T10:48:41;20.02;;;15.25;;
50773;SDS011;36745;48.544;8.918;2023-05-14T10:52:01;12.18;;;10.88;;
50773;SDS011;36745;48.544;8.918;2023-05-14T10:55:21;12.20;;;10.90;;
50773;SDS011;36745;48.544;8.918;2023-05-14T10:58:42;11.88;;;10.70;;
50773;SDS011;36745;48.544;8.918;2023-05-14T11:02:04;11.93;;;10.73;;
50773;SDS011;36745;48.544;8.918;2023-05-14T11:05:23;12.02;;;10.73;;
50773;SDS011;36745;48.544;8.918;2023-05-14T11:08:45;13.45;;;11.48;;
50773;SDS011;36745;48.544;8.918;2023-05-14T11:12:06;13.80;;;11.13;;
50773;SDS011;36745;48.544;8.918;2023-05-14T11:15:26;10.38;;;9.20;;
50773;SDS011;36745;48.544;8.918;2023-05-14T11:18:47;9.98;;;8.98;;
50773;SDS011;36745;48.544;8.918;2023-05-14T11:25:33;8.65;;;6.90;;
50773;SDS011;36745;48.544;8.918;2023-05-14T11:28:53;9.77;;;7.00;;
50773;SDS011;36745;48.544;8.918;2023-05-14T11:32:13;14.63;;;8.05;;
50773;SDS011;36745;48.544;8.918;2023-05-14T11:35:34;8.32;;;6.78;;
50773;SDS011;36745;48.544;8.918;2023-05-14T11:38:54;8.85;;;6.88;;
50773;SDS011;36745;48.544;8.918;2023-05-14T11:42:14;9.05;;;7.22;;
50773;SDS011;36745;48.544;8.918;2023-05-14T11:45:36;8.93;;;8.00;;
50773;SDS011;36745;48.544;8.918;2023-05-14T11:48:56;7.97;;;7.18;;
50773;SDS011;36745;48.544;8.918;2023-05-14T11:52:16;12.07;;;8.25;;
50773;SDS011;36745;48.544;8.918;2023-05-14T11:55:37;8.48;;;7.28;;
50773;SDS011;36745;48.544;8.918;2023-05-14T11:58:57;8.93;;;7.60;;
50773;SDS011;36745;48.544;8.918;2023-05-14T12:02:17;9.30;;;7.32;;
50773;SDS011;36745;48.544;8.918;2023-05-14T12:05:37;8.70;;;7.32;;
50773;SDS011;36745;48.544;8.918;2023-05-14T12:08:58;8.88;;;8.07;;
50773;SDS011;36745;48.544;8.918;2023-05-14T12:12:20;7.63;;;6.82;;
50773;SDS011;36745;48.544;8.918;2023-05-14T12:15:43;11.00;;;7.57;;
50773;SDS011;36745;48.544;8.918;2023-05-14T12:19:03;9.27;;;7.20;;
50773;SDS011;36745;48.544;8.918;2023-05-14T12:22:23;7.55;;;6.85;;
50773;SDS011;36745;48.544;8.918;2023-05-14T12:25:49;10.50;;;7.63;;
50773;SDS011;36745;48.544;8.918;2023-05-14T12:29:11;8.45;;;7.65;;
50773;SDS011;36745;48.544;8.918;2023-05-14T12:32:32;8.70;;;7.85;;
50773;SDS011;36745;48.544;8.918;2023-05-14T12:35:53;7.97;;;7.28;;
50773;SDS011;36745;48.544;8.918;2023-05-14T12:39:16;13.60;;;9.10;;
50773;SDS011;36745;48.544;8.918;2023-05-14T12:42:35;7.78;;;6.75;;
50773;SDS011;36745;48.544;8.918;2023-05-14T12:45:55;7.35;;;6.65;;
50773;SDS011;36745;48.544;8.918;2023-05-14T12:49:15;11.73;;;7.68;;
50773;SDS011;36745;48.544;8.918;2023-05-14T12:52:35;14.73;;;8.88;;
50773;SDS011;36745;48.544;8.918;2023-05-14T12:55:55;14.15;;;9.43;;
50773;SDS011;36745;48.544;8.918;2023-05-14T12:59:15;13.40;;;7.82;;
50773;SDS011;36745;48.544;8.918;2023-05-14T13:02:35;10.30;;;7.13;;
50773;SDS011;36745;48.544;8.918;2023-05-14T13:05:54;11.90;;;7.00;;
50773;SDS011;36745;48.544;8.918;2023-05-14T13:09:14;8.63;;;6.95;;
50773;SDS011;36745;48.544;8.918;2023-05-14T13:12:34;9.82;;;6.75;;
50773;SDS011;36745;48.544;8.918;2023-05-14T13:15:54;8.00;;;7.00;;
50773;SDS011;36745;48.544;8.918;2023-05-14T13:19:14;8.93;;;7.85;;
50773;SDS011;36745;48.544;8.918;2023-05-14T13:22:34;9.20;;;7.45;;
50773;SDS011;36745;48.544;8.918;2023-05-14T13:25:53;9.88;;;8.00;;
50773;SDS011;36745;48.544;8.918;2023-05-14T13:29:13;8.57;;;7.60;;
50773;SDS011;36745;48.544;8.918;2023-05-14T13:32:33;10.13;;;9.07;;
50773;SDS011;36745;48.544;8.918;2023-05-14T13:35:53;12.57;;;8.75;;
50773;SDS011;36745;48.544;8.918;2023-05-14T13:39:12;9.38;;;8.32;;
50773;SDS011;36745;48.544;8.918;2023-05-14T13:42:32;9.85;;;8.95;;
50773;SDS011;36745;48.544;8.918;2023-05-14T13:45:52;14.70;;;11.70;;
50773;SDS011;36745;48.544;8.918;2023-05-14T13:49:12;14.02;;;12.55;;
50773;SDS011;36745;48.544;8.918;2023-05-14T13:52:32;18.58;;;12.38;;
50773;SDS011;36745;48.544;8.918;2023-05-14T13:55:51;9.30;;;8.40;;
50773;SDS011;36745;48.544;8.918;2023-05-14T13:59:19;11.75;;;10.55;;
50773;SDS011;36745;48.544;8.918;2023-05-14T14:02:39;14.98;;;10.73;;
50773;SDS011;36745;48.544;8.918;2023-05-14T14:05:59;12.68;;;10.55;;
50773;SDS011;36745;48.544;8.918;2023-05-14T14:09:19;11.75;;;10.52;;
50773;SDS011;36745;48.544;8.918;2023-05-14T14:12:38;12.50;;;11.20;;
50773;SDS011;36745;48.544;8.918;2023-05-14T14:15:59;7.47;;;6.60;;
50773;SDS011;36745;48.544;8.918;2023-05-14T14:19:21;8.48;;;6.53;;
50773;SDS011;36745;48.544;8.918;2023-05-14T14:22:41;10.43;;;7.47;;
50773;SDS011;36745;48.544;8.918;2023-05-14T14:26:02;8.98;;;7.00;;
50773;SDS011;36745;48.544;8.918;2023-05-14T14:29:22;8.43;;;7.50;;
50773;SDS011;36745;48.544;8.918;2023-05-14T14:32:42;8.40;;;7.60;;
50773;SDS011;36745;48.544;8.918;2023-05-14T14:36:03;8.65;;;7.72;;
50773;SDS011;36745;48.544;8.918;2023-05-14T14:39:22;9.30;;;8.40;;
50773;SDS011;36745;48.544;8.918;2023-05-14T14:42:43;12.57;;;9.77;;
50773;SDS011;36745;48.544;8.918;2023-05-14T14:46:03;19.77;;;16.15;;
50773;SDS011;36745;48.544;8.918;2023-05-14T14:49:23;11.73;;;10.10;;
50773;SDS011;36745;48.544;8.918;2023-05-14T14:52:43;13.40;;;10.93;;
50773;SDS011;36745;48.544;8.918;2023-05-14T14:56:03;12.32;;;10.07;;
50773;SDS011;36745;48.544;8.918;2023-05-14T14:59:23;15.68;;;12.65;;
50773;SDS011;36745;48.544;8.918;2023-05-14T15:02:43;15.98;;;11.65;;
50773;SDS011;36745;48.544;8.918;2023-05-14T15:06:03;13.40;;;11.98;;
50773;SDS011;36745;48.544;8.918;2023-05-14T15:09:22;13.70;;;11.13;;
50773;SDS011;36745;48.544;8.918;2023-05-14T15:12:42;14.00;;;11.40;;
50773;SDS011;36745;48.544;8.918;2023-05-14T15:16:02;15.57;;;10.95;;
50773;SDS011;36745;48.544;8.918;2023-05-14T15:19:22;9.93;;;8.77;;
50773;SDS011;36745;48.544;8.918;2023-05-14T15:22:42;8.82;;;7.93;;
50773;SDS011;36745;48.544;8.918;2023-05-14T15:26:02;8.40;;;7.53;;
50773;SDS011;36745;48.544;8.918;2023-05-14T15:29:22;10.65;;;7.95;;
50773;SDS011;36745;48.544;8.918;2023-05-14T15:32:42;14.07;;;8.75;;
50773;SDS011;36745;48.544;8.918;2023-05-14T15:36:03;10.52;;;7.57;;
50773;SDS011;36745;48.544;8.918;2023-05-14T15:39:23;8.73;;;6.32;;
50773;SDS011;36745;48.544;8.918;2023-05-14T15:42:43;7.45;;;6.75;;
50773;SDS011;36745;48.544;8.918;2023-05-14T15:46:03;8.50;;;6.65;;
50773;SDS011;36745;48.544;8.918;2023-05-14T15:49:22;10.35;;;7.45;;
50773;SDS011;36745;48.544;8.918;2023-05-14T15:52:42;13.95;;;9.18;;
50773;SDS011;36745;48.544;8.918;2023-05-14T15:56:02;6.40;;;5.78;;
50773;SDS011;36745;48.544;8.918;2023-05-14T15:59:22;11.40;;;6.70;;
50773;SDS011;36745;48.544;8.918;2023-05-14T16:02:42;7.88;;;6.15;;
50773;SDS011;36745;48.544;8.918;2023-05-14T16:06:02;7.18;;;6.47;;
50773;SDS011;36745;48.544;8.918;2023-05-14T16:09:22;9.02;;;6.93;;
50773;SDS011;36745;48.544;8.918;2023-05-14T16:12:41;8.73;;;6.50;;
50773;SDS011;36745;48.544;8.918;2023-05-14T16:16:01;9.38;;;6.40;;
50773;SDS011;36745;48.544;8.918;2023-05-14T16:19:21;9.07;;;6.63;;
50773;SDS011;36745;48.544;8.918;2023-05-14T16:22:41;8.88;;;7.13;;
50773;SDS011;36745;48.544;8.918;2023-05-14T16:26:01;11.45;;;8.05;;
50773;SDS011;36745;48.544;8.918;2023-05-14T16:29:21;8.57;;;7.32;;
50773;SDS011;36745;48.544;8.918;2023-05-14T16:32:41;9.85;;;7.90;;
50773;SDS011;36745;48.544;8.918;2023-05-14T16:36:01;7.80;;;6.90;;
50773;SDS011;36745;48.544;8.918;2023-05-14T16:39:20;8.85;;;8.05;;
50773;SDS011;36745;48.544;8.918;2023-05-14T16:42:40;8.60;;;6.97;;
50773;SDS011;36745;48.544;8.918;2023-05-14T16:46:00;9.60;;;7.60;;
50773;SDS011;36745;48.544;8.918;2023-05-14T16:49:20;9.77;;;7.78;;
50773;SDS011;36745;48.544;8.918;2023-05-14T16:52:41;8.85;;;7.78;;
50773;SDS011;36745;48.544;8.918;2023-05-14T16:56:01;9.10;;;8.18;;
50773;SDS011;36745;48.544;8.918;2023-05-14T16:59:21;10.90;;;8.82;;
50773;SDS011;36745;48.544;8.918;2023-05-14T17:02:41;10.30;;;9.07;;
50773;SDS011;36745;48.544;8.918;2023-05-14T17:06:01;12.02;;;9.77;;
50773;SDS011;36745;48.544;8.918;2023-05-14T17:09:20;11.05;;;9.95;;
50773;SDS011;36745;48.544;8.918;2023-05-14T17:12:40;14.48;;;10.93;;
50773;SDS011;36745;48.544;8.918;2023-05-14T17:16:00;12.13;;;10.50;;
50773;SDS011;36745;48.544;8.918;2023-05-14T17:19:20;13.50;;;10.00;;
50773;SDS011;36745;48.544;8.918;2023-05-14T17:22:40;11.88;;;10.35;;
50773;SDS011;36745;48.544;8.918;2023-05-14T17:26:00;12.05;;;10.60;;
50773;SDS011;36745;48.544;8.918;2023-05-14T17:29:20;14.70;;;11.70;;
50773;SDS011;36745;48.544;8.918;2023-05-14T17:32:40;10.65;;;9.27;;
50773;SDS011;36745;48.544;8.918;2023-05-14T17:35:59;12.95;;;10.27;;
50773;SDS011;36745;48.544;8.918;2023-05-14T17:39:19;11.50;;;10.30;;
50773;SDS011;36745;48.544;8.918;2023-05-14T17:42:39;12.10;;;10.40;;
50773;SDS011;36745;48.544;8.918;2023-05-14T17:45:59;12.15;;;10.25;;
50773;SDS011;36745;48.544;8.918;2023-05-14T17:49:19;12.98;;;10.07;;
50773;SDS011;36745;48.544;8.918;2023-05-14T17:52:39;17.25;;;10.77;;
50773;SDS011;36745;48.544;8.918;2023-05-14T17:56:02;12.52;;;9.35;;
50773;SDS011;36745;48.544;8.918;2023-05-14T17:59:21;9.75;;;8.80;;
50773;SDS011;36745;48.544;8.918;2023-05-14T18:02:41;13.48;;;10.23;;
50773;SDS011;36745;48.544;8.918;2023-05-14T18:06:01;30.67;;;20.88;;
50773;SDS011;36745;48.544;8.918;2023-05-14T18:09:21;18.40;;;13.85;;
50773;SDS011;36745;48.544;8.918;2023-05-14T18:12:41;12.18;;;10.32;;
50773;SDS011;36745;48.544;8.918;2023-05-14T18:16:01;12.20;;;9.65;;
50773;SDS011;36745;48.544;8.918;2023-05-14T18:19:21;13.02;;;9.52;;
50773;SDS011;36745;48.544;8.918;2023-05-14T18:22:40;11.43;;;10.20;;
50773;SDS011;36745;48.544;8.918;2023-05-14T18:26:00;11.70;;;9.45;;
50773;SDS011;36745;48.544;8.918;2023-05-14T18:29:20;12.40;;;10.43;;
50773;SDS011;36745;48.544;8.918;2023-05-14T18:32:40;12.10;;;10.93;;
50773;SDS011;36745;48.544;8.918;2023-05-14T18:36:01;13.73;;;11.13;;
50773;SDS011;36745;48.544;8.918;2023-05-14T18:39:21;13.13;;;10.93;;
50773;SDS011;36745;48.544;8.918;2023-05-14T18:42:41;16.65;;;11.63;;
50773;SDS011;36745;48.544;8.918;2023-05-14T18:46:01;14.43;;;11.70;;
50773;SDS011;36745;48.544;8.918;2023-05-14T18:49:21;14.75;;;11.57;;
50773;SDS011;36745;48.544;8.918;2023-05-14T18:52:40;14.82;;;11.55;;
50773;SDS011;36745;48.544;8.918;2023-05-14T18:56:00;13.10;;;11.52;;
50773;SDS011;36745;48.544;8.918;2023-05-14T18:59:20;16.85;;;12.55;;
50773;SDS011;36745;48.544;8.918;2023-05-14T19:02:40;19.30;;;12.80;;
50773;SDS011;36745;48.544;8.918;2023-05-14T19:06:00;19.38;;;12.50;;
50773;SDS011;36745;48.544;8.918;2023-05-14T19:09:20;17.33;;;11.70;;
50773;SDS011;36745;48.544;8.918;2023-05-14T19:12:39;13.20;;;11.80;;
50773;SDS011;36745;48.544;8.918;2023-05-14T19:15:59;14.40;;;12.15;;
50773;SDS011;36745;48.544;8.918;2023-05-14T19:19:19;14.32;;;12.55;;
50773;SDS011;36745;48.544;8.918;2023-05-14T19:22:39;15.02;;;12.73;;
50773;SDS011;36745;48.544;8.918;2023-05-14T19:25:59;18.38;;;12.70;;
50773;SDS011;36745;48.544;8.918;2023-05-14T19:29:19;20.60;;;13.02;;
50773;SDS011;36745;48.544;8.918;2023-05-14T19:32:39;19.00;;;13.50;;
50773;SDS011;36745;48.544;8.918;2023-05-14T19:35:59;21.50;;;14.15;;
50773;SDS011;36745;48.544;8.918;2023-05-14T19:39:19;18.65;;;15.38;;
50773;SDS011;36745;48.544;8.918;2023-05-14T19:42:38;21.08;;;16.52;;
50773;SDS011;36745;48.544;8.918;2023-05-14T19:45:58;16.60;;;13.40;;
50773;SDS011;36745;48.544;8.918;2023-05-14T19:49:18;21.50;;;14.93;;
50773;SDS011;36745;48.544;8.918;2023-05-14T19:52:38;18.98;;;14.65;;